sensor_id;sensor_type;location;lat;lon;timestamp;P1;durP1;ratioP1;P2;durP2;ratioP2
17598;SDS011;8918;52.092;5.232;2023-02-26T00:00:12;6.63;;;1.90;;
17598;SDS011;8918;52.092;5.232;2023-02-26T00:02:42;7.50;;;2.57;;
17598;SDS011;8918;52.092;5.232;2023-02-26T00:05:10;7.03;;;2.07;;
17598;SDS011;8918;52.092;5.232;2023-02-26T00:07:37;3.77;;;1.80;;
17598;SDS011;8918;52.092;5.232;2023-02-26T00:10:04;7.40;;;2.00;;
17598;SDS011;8918;52.092;5.232;2023-02-26T00:12:31;4.07;;;1.60;;
17598;SDS011;8918;52.092;5.232;2023-02-26T00:14:57;5.00;;;1.60;;
17598;SDS011;8918;52.092;5.232;2023-02-26T00:17:31;5.47;;;1.70;;
17598;SDS011;8918;52.092;5.232;2023-02-26T00:20:11;7.97;;;1.93;;
17598;SDS011;8918;52.092;5.232;2023-02-26T00:22:39;2.47;;;1.50;;
17598;SDS011;8918;52.092;5.232;2023-02-26T00:25:05;4.27;;;1.60;;
17598;SDS011;8918;52.092;5.232;2023-02-26T00:27:31;4.93;;;1.67;;
17598;SDS011;8918;52.092;5.232;2023-02-26T00:29:57;4.43;;;1.80;;
17598;SDS011;8918;52.092;5.232;2023-02-26T00:32:23;6.47;;;1.97;;
17598;SDS011;8918;52.092;5.232;2023-02-26T00:34:49;9.13;;;2.10;;
17598;SDS011;8918;52.092;5.232;2023-02-26T00:37:37;5.20;;;1.70;;
17598;SDS011;8918;52.092;5.232;2023-02-26T00:40:20;4.57;;;1.80;;
17598;SDS011;8918;52.092;5.232;2023-02-26T00:42:47;10.50;;;1.77;;
17598;SDS011;8918;52.092;5.232;2023-02-26T00:45:13;3.30;;;1.50;;
17598;SDS011;8918;52.092;5.232;2023-02-26T00:47:59;4.87;;;1.90;;
17598;SDS011;8918;52.092;5.232;2023-02-26T00:50:29;4.10;;;1.50;;
17598;SDS011;8918;52.092;5.232;2023-02-26T00:55:41;3.33;;;1.20;;
17598;SDS011;8918;52.092;5.232;2023-02-26T00:58:06;2.57;;;1.10;;
17598;SDS011;8918;52.092;5.232;2023-02-26T01:00:32;7.07;;;1.37;;
17598;SDS011;8918;52.092;5.232;2023-02-26T01:02:58;3.97;;;1.37;;
17598;SDS011;8918;52.092;5.232;2023-02-26T01:05:24;5.57;;;1.70;;
17598;SDS011;8918;52.092;5.232;2023-02-26T01:07:55;2.83;;;1.10;;
17598;SDS011;8918;52.092;5.232;2023-02-26T01:10:32;3.60;;;1.10;;
17598;SDS011;8918;52.092;5.232;2023-02-26T01:12:58;4.30;;;1.30;;
17598;SDS011;8918;52.092;5.232;2023-02-26T01:15:24;3.53;;;1.10;;
17598;SDS011;8918;52.092;5.232;2023-02-26T01:17:52;7.23;;;1.10;;
17598;SDS011;8918;52.092;5.232;2023-02-26T01:20:30;4.20;;;1.30;;
17598;SDS011;8918;52.092;5.232;2023-02-26T01:23:08;4.03;;;1.10;;
17598;SDS011;8918;52.092;5.232;2023-02-26T01:25:42;5.07;;;1.33;;
17598;SDS011;8918;52.092;5.232;2023-02-26T01:28:12;5.83;;;1.40;;
17598;SDS011;8918;52.092;5.232;2023-02-26T01:30:38;3.43;;;1.10;;
17598;SDS011;8918;52.092;5.232;2023-02-26T01:33:10;1.60;;;1.00;;
17598;SDS011;8918;52.092;5.232;2023-02-26T01:35:52;3.90;;;1.30;;
17598;SDS011;8918;52.092;5.232;2023-02-26T01:38:32;6.93;;;1.57;;
17598;SDS011;8918;52.092;5.232;2023-02-26T01:43:46;4.27;;;1.10;;
17598;SDS011;8918;52.092;5.232;2023-02-26T01:46:31;6.10;;;1.60;;
17598;SDS011;8918;52.092;5.232;2023-02-26T01:49:16;4.93;;;1.43;;
17598;SDS011;8918;52.092;5.232;2023-02-26T01:54:09;3.73;;;1.10;;
17598;SDS011;8918;52.092;5.232;2023-02-26T01:56:35;6.33;;;1.13;;
17598;SDS011;8918;52.092;5.232;2023-02-26T01:59:03;4.97;;;1.37;;
17598;SDS011;8918;52.092;5.232;2023-02-26T02:01:34;4.90;;;1.37;;
17598;SDS011;8918;52.092;5.232;2023-02-26T02:04:03;5.07;;;1.20;;
17598;SDS011;8918;52.092;5.232;2023-02-26T02:06:30;3.83;;;1.10;;
17598;SDS011;8918;52.092;5.232;2023-02-26T02:08:56;4.30;;;1.27;;
17598;SDS011;8918;52.092;5.232;2023-02-26T02:11:22;3.37;;;1.27;;
17598;SDS011;8918;52.092;5.232;2023-02-26T02:16:46;4.27;;;1.10;;
17598;SDS011;8918;52.092;5.232;2023-02-26T02:19:19;5.70;;;1.33;;
17598;SDS011;8918;52.092;5.232;2023-02-26T02:33:33;3.47;;;1.20;;
17598;SDS011;8918;52.092;5.232;2023-02-26T02:36:06;3.73;;;1.20;;
17598;SDS011;8918;52.092;5.232;2023-02-26T02:38:41;6.03;;;1.50;;
17598;SDS011;8918;52.092;5.232;2023-02-26T02:41:19;5.87;;;1.30;;
17598;SDS011;8918;52.092;5.232;2023-02-26T02:43:50;4.90;;;1.30;;
17598;SDS011;8918;52.092;5.232;2023-02-26T02:46:19;3.67;;;1.23;;
17598;SDS011;8918;52.092;5.232;2023-02-26T02:48:59;4.87;;;1.50;;
17598;SDS011;8918;52.092;5.232;2023-02-26T02:51:27;6.93;;;1.50;;
17598;SDS011;8918;52.092;5.232;2023-02-26T02:56:49;2.60;;;1.27;;
17598;SDS011;8918;52.092;5.232;2023-02-26T02:59:36;2.43;;;1.13;;
17598;SDS011;8918;52.092;5.232;2023-02-26T03:02:14;5.40;;;1.00;;
17598;SDS011;8918;52.092;5.232;2023-02-26T03:04:55;6.10;;;1.50;;
17598;SDS011;8918;52.092;5.232;2023-02-26T03:07:21;4.33;;;1.30;;
17598;SDS011;8918;52.092;5.232;2023-02-26T03:09:47;2.03;;;1.10;;
17598;SDS011;8918;52.092;5.232;2023-02-26T03:12:13;5.57;;;1.57;;
17598;SDS011;8918;52.092;5.232;2023-02-26T03:14:38;3.03;;;1.20;;
17598;SDS011;8918;52.092;5.232;2023-02-26T03:17:18;5.83;;;1.73;;
17598;SDS011;8918;52.092;5.232;2023-02-26T03:25:22;4.27;;;1.00;;
17598;SDS011;8918;52.092;5.232;2023-02-26T03:30:48;2.30;;;1.30;;
17598;SDS011;8918;52.092;5.232;2023-02-26T03:33:22;3.30;;;1.50;;
17598;SDS011;8918;52.092;5.232;2023-02-26T03:36:00;4.87;;;0.73;;
17598;SDS011;8918;52.092;5.232;2023-02-26T03:38:47;4.10;;;1.20;;
17598;SDS011;8918;52.092;5.232;2023-02-26T03:41:34;2.27;;;1.00;;
17598;SDS011;8918;52.092;5.232;2023-02-26T03:44:10;2.67;;;1.10;;
17598;SDS011;8918;52.092;5.232;2023-02-26T03:46:44;2.10;;;1.10;;
17598;SDS011;8918;52.092;5.232;2023-02-26T03:49:17;3.33;;;0.97;;
17598;SDS011;8918;52.092;5.232;2023-02-26T03:51:48;2.97;;;1.23;;
17598;SDS011;8918;52.092;5.232;2023-02-26T03:54:34;9.53;;;1.20;;
17598;SDS011;8918;52.092;5.232;2023-02-26T03:57:05;3.40;;;0.80;;
17598;SDS011;8918;52.092;5.232;2023-02-26T03:59:31;5.20;;;1.10;;
17598;SDS011;8918;52.092;5.232;2023-02-26T04:04:51;3.77;;;1.17;;
17598;SDS011;8918;52.092;5.232;2023-02-26T04:07:21;3.43;;;1.00;;
17598;SDS011;8918;52.092;5.232;2023-02-26T04:09:48;2.90;;;1.10;;
17598;SDS011;8918;52.092;5.232;2023-02-26T04:12:19;9.10;;;1.13;;
17598;SDS011;8918;52.092;5.232;2023-02-26T04:14:46;2.03;;;0.90;;
17598;SDS011;8918;52.092;5.232;2023-02-26T04:17:12;2.87;;;1.07;;
17598;SDS011;8918;52.092;5.232;2023-02-26T04:19:37;4.17;;;1.30;;
17598;SDS011;8918;52.092;5.232;2023-02-26T04:22:03;2.30;;;1.23;;
17598;SDS011;8918;52.092;5.232;2023-02-26T04:24:29;3.63;;;0.87;;
17598;SDS011;8918;52.092;5.232;2023-02-26T04:26:54;2.33;;;1.10;;
17598;SDS011;8918;52.092;5.232;2023-02-26T04:29:20;4.50;;;1.23;;
17598;SDS011;8918;52.092;5.232;2023-02-26T04:31:45;3.60;;;1.20;;
17598;SDS011;8918;52.092;5.232;2023-02-26T04:34:11;3.03;;;1.07;;
17598;SDS011;8918;52.092;5.232;2023-02-26T04:36:37;4.60;;;1.00;;
17598;SDS011;8918;52.092;5.232;2023-02-26T04:39:03;2.60;;;1.00;;
17598;SDS011;8918;52.092;5.232;2023-02-26T04:41:28;3.23;;;0.90;;
17598;SDS011;8918;52.092;5.232;2023-02-26T04:43:54;2.40;;;1.00;;
17598;SDS011;8918;52.092;5.232;2023-02-26T04:46:19;3.03;;;1.10;;
17598;SDS011;8918;52.092;5.232;2023-02-26T04:48:45;2.97;;;1.10;;
17598;SDS011;8918;52.092;5.232;2023-02-26T04:51:11;3.20;;;1.10;;
17598;SDS011;8918;52.092;5.232;2023-02-26T04:53:36;3.50;;;1.10;;
17598;SDS011;8918;52.092;5.232;2023-02-26T04:56:02;3.73;;;1.10;;
17598;SDS011;8918;52.092;5.232;2023-02-26T04:58:27;1.87;;;1.00;;
17598;SDS011;8918;52.092;5.232;2023-02-26T05:00:53;2.40;;;0.93;;
17598;SDS011;8918;52.092;5.232;2023-02-26T05:03:19;3.27;;;1.03;;
17598;SDS011;8918;52.092;5.232;2023-02-26T05:05:46;4.47;;;1.10;;
17598;SDS011;8918;52.092;5.232;2023-02-26T05:08:12;2.40;;;1.03;;
17598;SDS011;8918;52.092;5.232;2023-02-26T05:10:38;1.90;;;0.80;;
17598;SDS011;8918;52.092;5.232;2023-02-26T05:13:03;5.67;;;1.10;;
17598;SDS011;8918;52.092;5.232;2023-02-26T05:15:29;3.30;;;0.97;;
17598;SDS011;8918;52.092;5.232;2023-02-26T05:17:55;2.40;;;1.10;;
17598;SDS011;8918;52.092;5.232;2023-02-26T05:20:21;3.10;;;1.00;;
17598;SDS011;8918;52.092;5.232;2023-02-26T05:22:47;4.33;;;1.30;;
17598;SDS011;8918;52.092;5.232;2023-02-26T05:25:12;4.20;;;1.33;;
17598;SDS011;8918;52.092;5.232;2023-02-26T05:27:38;4.00;;;0.90;;
17598;SDS011;8918;52.092;5.232;2023-02-26T05:30:06;3.10;;;1.27;;
17598;SDS011;8918;52.092;5.232;2023-02-26T05:32:33;3.87;;;1.10;;
17598;SDS011;8918;52.092;5.232;2023-02-26T05:34:58;2.73;;;1.00;;
17598;SDS011;8918;52.092;5.232;2023-02-26T05:37:24;3.77;;;1.10;;
17598;SDS011;8918;52.092;5.232;2023-02-26T05:39:49;2.80;;;1.23;;
17598;SDS011;8918;52.092;5.232;2023-02-26T05:42:15;3.73;;;1.30;;
17598;SDS011;8918;52.092;5.232;2023-02-26T05:44:40;4.17;;;1.23;;
17598;SDS011;8918;52.092;5.232;2023-02-26T05:47:06;2.90;;;0.90;;
17598;SDS011;8918;52.092;5.232;2023-02-26T05:49:32;1.17;;;0.90;;
17598;SDS011;8918;52.092;5.232;2023-02-26T05:51:57;2.90;;;1.00;;
17598;SDS011;8918;52.092;5.232;2023-02-26T05:54:23;3.70;;;1.10;;
17598;SDS011;8918;52.092;5.232;2023-02-26T05:56:48;3.33;;;1.30;;
17598;SDS011;8918;52.092;5.232;2023-02-26T05:59:14;4.73;;;0.97;;
17598;SDS011;8918;52.092;5.232;2023-02-26T06:01:40;2.27;;;1.30;;
17598;SDS011;8918;52.092;5.232;2023-02-26T06:04:06;3.35;;;1.10;;
17598;SDS011;8918;52.092;5.232;2023-02-26T06:06:33;2.90;;;1.10;;
17598;SDS011;8918;52.092;5.232;2023-02-26T06:08:58;3.50;;;1.10;;
17598;SDS011;8918;52.092;5.232;2023-02-26T06:11:26;2.10;;;1.07;;
17598;SDS011;8918;52.092;5.232;2023-02-26T06:13:52;4.90;;;1.10;;
17598;SDS011;8918;52.092;5.232;2023-02-26T06:16:18;5.20;;;1.17;;
17598;SDS011;8918;52.092;5.232;2023-02-26T06:18:44;5.53;;;1.30;;
17598;SDS011;8918;52.092;5.232;2023-02-26T06:21:10;2.13;;;1.00;;
17598;SDS011;8918;52.092;5.232;2023-02-26T06:23:36;2.23;;;1.00;;
17598;SDS011;8918;52.092;5.232;2023-02-26T06:26:01;2.73;;;1.00;;
17598;SDS011;8918;52.092;5.232;2023-02-26T06:28:27;3.80;;;1.10;;
17598;SDS011;8918;52.092;5.232;2023-02-26T06:30:53;5.00;;;1.00;;
17598;SDS011;8918;52.092;5.232;2023-02-26T06:33:19;4.00;;;1.60;;
17598;SDS011;8918;52.092;5.232;2023-02-26T06:35:45;3.80;;;1.43;;
17598;SDS011;8918;52.092;5.232;2023-02-26T06:38:11;2.97;;;1.40;;
17598;SDS011;8918;52.092;5.232;2023-02-26T06:40:36;5.87;;;1.63;;
17598;SDS011;8918;52.092;5.232;2023-02-26T06:43:02;6.80;;;1.40;;
17598;SDS011;8918;52.092;5.232;2023-02-26T06:45:28;2.67;;;1.47;;
17598;SDS011;8918;52.092;5.232;2023-02-26T06:47:53;6.13;;;1.50;;
17598;SDS011;8918;52.092;5.232;2023-02-26T06:50:19;6.53;;;1.40;;
17598;SDS011;8918;52.092;5.232;2023-02-26T06:52:45;4.73;;;1.40;;
17598;SDS011;8918;52.092;5.232;2023-02-26T06:55:10;2.20;;;1.30;;
17598;SDS011;8918;52.092;5.232;2023-02-26T06:57:36;3.30;;;1.23;;
17598;SDS011;8918;52.092;5.232;2023-02-26T07:00:05;5.47;;;1.40;;
17598;SDS011;8918;52.092;5.232;2023-02-26T07:02:32;3.67;;;1.10;;
17598;SDS011;8918;52.092;5.232;2023-02-26T07:04:58;1.87;;;1.10;;
17598;SDS011;8918;52.092;5.232;2023-02-26T07:07:23;3.77;;;1.00;;
17598;SDS011;8918;52.092;5.232;2023-02-26T07:09:49;3.07;;;1.20;;
17598;SDS011;8918;52.092;5.232;2023-02-26T07:12:15;3.50;;;1.23;;
17598;SDS011;8918;52.092;5.232;2023-02-26T07:14:40;4.43;;;1.83;;
17598;SDS011;8918;52.092;5.232;2023-02-26T07:17:07;3.10;;;1.40;;
17598;SDS011;8918;52.092;5.232;2023-02-26T07:19:33;3.40;;;1.40;;
17598;SDS011;8918;52.092;5.232;2023-02-26T07:21:59;3.63;;;1.57;;
17598;SDS011;8918;52.092;5.232;2023-02-26T07:24:24;4.83;;;1.27;;
17598;SDS011;8918;52.092;5.232;2023-02-26T07:26:50;6.30;;;1.77;;
17598;SDS011;8918;52.092;5.232;2023-02-26T07:29:15;2.57;;;1.13;;
17598;SDS011;8918;52.092;5.232;2023-02-26T07:31:41;3.67;;;1.50;;
17598;SDS011;8918;52.092;5.232;2023-02-26T07:34:07;3.40;;;1.40;;
17598;SDS011;8918;52.092;5.232;2023-02-26T07:36:32;5.03;;;1.40;;
17598;SDS011;8918;52.092;5.232;2023-02-26T07:38:58;6.47;;;1.20;;
17598;SDS011;8918;52.092;5.232;2023-02-26T07:41:23;3.33;;;1.10;;
17598;SDS011;8918;52.092;5.232;2023-02-26T07:43:49;2.27;;;1.00;;
17598;SDS011;8918;52.092;5.232;2023-02-26T07:46:14;6.43;;;1.20;;
17598;SDS011;8918;52.092;5.232;2023-02-26T07:48:40;4.07;;;1.17;;
17598;SDS011;8918;52.092;5.232;2023-02-26T07:51:06;1.93;;;1.20;;
17598;SDS011;8918;52.092;5.232;2023-02-26T07:53:32;5.07;;;1.50;;
17598;SDS011;8918;52.092;5.232;2023-02-26T07:55:59;3.17;;;1.40;;
17598;SDS011;8918;52.092;5.232;2023-02-26T07:58:24;4.13;;;1.40;;
17598;SDS011;8918;52.092;5.232;2023-02-26T08:00:50;5.57;;;1.10;;
17598;SDS011;8918;52.092;5.232;2023-02-26T08:03:16;3.30;;;1.00;;
17598;SDS011;8918;52.092;5.232;2023-02-26T08:05:43;4.17;;;1.60;;
17598;SDS011;8918;52.092;5.232;2023-02-26T08:08:08;5.33;;;2.27;;
17598;SDS011;8918;52.092;5.232;2023-02-26T08:10:34;9.30;;;2.50;;
17598;SDS011;8918;52.092;5.232;2023-02-26T08:13:00;12.17;;;2.23;;
17598;SDS011;8918;52.092;5.232;2023-02-26T08:15:25;5.03;;;2.23;;
17598;SDS011;8918;52.092;5.232;2023-02-26T08:17:51;5.67;;;2.17;;
17598;SDS011;8918;52.092;5.232;2023-02-26T08:20:17;8.63;;;2.50;;
17598;SDS011;8918;52.092;5.232;2023-02-26T08:22:43;4.83;;;1.90;;
17598;SDS011;8918;52.092;5.232;2023-02-26T08:25:09;6.30;;;1.30;;
17598;SDS011;8918;52.092;5.232;2023-02-26T08:27:35;4.20;;;1.20;;
17598;SDS011;8918;52.092;5.232;2023-02-26T08:30:00;5.13;;;1.30;;
17598;SDS011;8918;52.092;5.232;2023-02-26T08:32:26;5.20;;;1.30;;
17598;SDS011;8918;52.092;5.232;2023-02-26T08:34:52;2.70;;;1.03;;
17598;SDS011;8918;52.092;5.232;2023-02-26T08:37:19;3.07;;;1.10;;
17598;SDS011;8918;52.092;5.232;2023-02-26T08:39:48;2.33;;;1.10;;
17598;SDS011;8918;52.092;5.232;2023-02-26T08:42:14;5.40;;;1.30;;
17598;SDS011;8918;52.092;5.232;2023-02-26T08:44:41;3.10;;;1.07;;
17598;SDS011;8918;52.092;5.232;2023-02-26T08:47:07;4.37;;;1.43;;
17598;SDS011;8918;52.092;5.232;2023-02-26T08:49:33;3.27;;;1.50;;
17598;SDS011;8918;52.092;5.232;2023-02-26T08:51:59;3.97;;;1.00;;
17598;SDS011;8918;52.092;5.232;2023-02-26T08:54:24;6.07;;;1.33;;
17598;SDS011;8918;52.092;5.232;2023-02-26T08:56:51;5.20;;;1.07;;
17598;SDS011;8918;52.092;5.232;2023-02-26T08:59:19;3.20;;;0.93;;
17598;SDS011;8918;52.092;5.232;2023-02-26T09:01:45;3.63;;;1.00;;
17598;SDS011;8918;52.092;5.232;2023-02-26T09:04:11;3.27;;;1.00;;
17598;SDS011;8918;52.092;5.232;2023-02-26T09:06:37;1.97;;;0.80;;
17598;SDS011;8918;52.092;5.232;2023-02-26T09:09:02;3.13;;;0.93;;
17598;SDS011;8918;52.092;5.232;2023-02-26T09:11:28;3.60;;;1.00;;
17598;SDS011;8918;52.092;5.232;2023-02-26T09:13:55;4.53;;;1.30;;
17598;SDS011;8918;52.092;5.232;2023-02-26T09:16:22;5.50;;;1.00;;
17598;SDS011;8918;52.092;5.232;2023-02-26T09:18:48;2.27;;;0.93;;
17598;SDS011;8918;52.092;5.232;2023-02-26T09:21:14;3.53;;;1.00;;
17598;SDS011;8918;52.092;5.232;2023-02-26T09:23:40;3.07;;;1.00;;
17598;SDS011;8918;52.092;5.232;2023-02-26T09:26:05;2.63;;;1.00;;
17598;SDS011;8918;52.092;5.232;2023-02-26T09:28:32;3.07;;;1.40;;
17598;SDS011;8918;52.092;5.232;2023-02-26T09:30:59;3.90;;;1.10;;
17598;SDS011;8918;52.092;5.232;2023-02-26T09:33:25;4.00;;;0.83;;
17598;SDS011;8918;52.092;5.232;2023-02-26T09:35:50;2.33;;;1.10;;
17598;SDS011;8918;52.092;5.232;2023-02-26T09:38:16;2.10;;;0.97;;
17598;SDS011;8918;52.092;5.232;2023-02-26T09:46:20;2.90;;;0.80;;
17598;SDS011;8918;52.092;5.232;2023-02-26T09:48:49;3.37;;;0.80;;
17598;SDS011;8918;52.092;5.232;2023-02-26T09:51:17;2.13;;;0.90;;
17598;SDS011;8918;52.092;5.232;2023-02-26T09:53:45;1.47;;;0.73;;
17598;SDS011;8918;52.092;5.232;2023-02-26T09:56:17;3.50;;;1.00;;
17598;SDS011;8918;52.092;5.232;2023-02-26T09:58:47;2.27;;;0.70;;
17598;SDS011;8918;52.092;5.232;2023-02-26T10:04:21;2.60;;;0.90;;
17598;SDS011;8918;52.092;5.232;2023-02-26T10:07:13;2.00;;;0.73;;
17598;SDS011;8918;52.092;5.232;2023-02-26T10:10:08;1.90;;;0.70;;
17598;SDS011;8918;52.092;5.232;2023-02-26T10:12:39;1.77;;;0.77;;
17598;SDS011;8918;52.092;5.232;2023-02-26T10:15:10;2.33;;;0.80;;
17598;SDS011;8918;52.092;5.232;2023-02-26T10:20:24;2.17;;;0.90;;
17598;SDS011;8918;52.092;5.232;2023-02-26T10:23:41;4.20;;;0.73;;
17598;SDS011;8918;52.092;5.232;2023-02-26T10:25:46;2.90;;;0.80;;
17598;SDS011;8918;52.092;5.232;2023-02-26T10:36:47;1.80;;;0.70;;
17598;SDS011;8918;52.092;5.232;2023-02-26T10:41:58;2.47;;;1.00;;
17598;SDS011;8918;52.092;5.232;2023-02-26T10:50:43;3.73;;;1.00;;
17598;SDS011;8918;52.092;5.232;2023-02-26T10:53:14;1.83;;;0.90;;
17598;SDS011;8918;52.092;5.232;2023-02-26T10:58:10;1.63;;;0.70;;
17598;SDS011;8918;52.092;5.232;2023-02-26T11:00:39;4.13;;;1.03;;
17598;SDS011;8918;52.092;5.232;2023-02-26T11:03:06;1.70;;;0.70;;
17598;SDS011;8918;52.092;5.232;2023-02-26T11:05:37;2.00;;;1.00;;
17598;SDS011;8918;52.092;5.232;2023-02-26T11:08:04;4.00;;;0.90;;
17598;SDS011;8918;52.092;5.232;2023-02-26T11:10:50;3.47;;;0.90;;
17598;SDS011;8918;52.092;5.232;2023-02-26T11:13:17;1.67;;;0.80;;
17598;SDS011;8918;52.092;5.232;2023-02-26T11:15:47;1.05;;;0.73;;
17598;SDS011;8918;52.092;5.232;2023-02-26T11:18:16;2.60;;;1.00;;
17598;SDS011;8918;52.092;5.232;2023-02-26T11:20:47;1.73;;;0.70;;
17598;SDS011;8918;52.092;5.232;2023-02-26T11:23:15;3.30;;;0.83;;
17598;SDS011;8918;52.092;5.232;2023-02-26T11:25:44;2.40;;;0.90;;
17598;SDS011;8918;52.092;5.232;2023-02-26T11:28:20;1.80;;;1.10;;
17598;SDS011;8918;52.092;5.232;2023-02-26T11:30:50;1.97;;;1.30;;
17598;SDS011;8918;52.092;5.232;2023-02-26T11:33:22;2.70;;;1.00;;
17598;SDS011;8918;52.092;5.232;2023-02-26T11:35:54;1.30;;;1.00;;
17598;SDS011;8918;52.092;5.232;2023-02-26T11:38:24;2.23;;;1.13;;
17598;SDS011;8918;52.092;5.232;2023-02-26T11:40:53;3.00;;;1.10;;
17598;SDS011;8918;52.092;5.232;2023-02-26T11:43:21;3.33;;;1.00;;
17598;SDS011;8918;52.092;5.232;2023-02-26T11:45:58;3.03;;;0.90;;
17598;SDS011;8918;52.092;5.232;2023-02-26T11:51:17;2.03;;;0.90;;
17598;SDS011;8918;52.092;5.232;2023-02-26T11:59:23;2.85;;;1.08;;
17598;SDS011;8918;52.092;5.232;2023-02-26T12:01:50;2.20;;;0.90;;
17598;SDS011;8918;52.092;5.232;2023-02-26T12:04:18;3.00;;;0.95;;
17598;SDS011;8918;52.092;5.232;2023-02-26T12:06:46;0.98;;;0.60;;
17598;SDS011;8918;52.092;5.232;2023-02-26T12:09:16;2.22;;;1.00;;
17598;SDS011;8918;52.092;5.232;2023-02-26T12:14:46;1.65;;;0.73;;
17598;SDS011;8918;52.092;5.232;2023-02-26T12:17:32;4.25;;;1.10;;
17598;SDS011;8918;52.092;5.232;2023-02-26T12:33:51;1.40;;;0.75;;
17598;SDS011;8918;52.092;5.232;2023-02-26T12:50:16;1.65;;;0.82;;
17598;SDS011;8918;52.092;5.232;2023-02-26T13:06:25;1.03;;;0.60;;
17598;SDS011;8918;52.092;5.232;2023-02-26T13:17:46;3.60;;;0.87;;
17598;SDS011;8918;52.092;5.232;2023-02-26T13:20:27;1.73;;;0.73;;
17598;SDS011;8918;52.092;5.232;2023-02-26T13:27:52;2.30;;;0.63;;
17598;SDS011;8918;52.092;5.232;2023-02-26T13:30:23;2.73;;;0.73;;
17598;SDS011;8918;52.092;5.232;2023-02-26T13:32:54;2.23;;;0.80;;
17598;SDS011;8918;52.092;5.232;2023-02-26T13:35:26;1.37;;;0.70;;
17598;SDS011;8918;52.092;5.232;2023-02-26T13:37:59;2.57;;;1.00;;
17598;SDS011;8918;52.092;5.232;2023-02-26T13:40:45;2.00;;;0.70;;
17598;SDS011;8918;52.092;5.232;2023-02-26T13:43:28;1.27;;;0.70;;
17598;SDS011;8918;52.092;5.232;2023-02-26T13:45:59;1.93;;;0.73;;
17598;SDS011;8918;52.092;5.232;2023-02-26T13:51:37;1.43;;;0.80;;
17598;SDS011;8918;52.092;5.232;2023-02-26T13:56:41;1.57;;;0.73;;
17598;SDS011;8918;52.092;5.232;2023-02-26T14:06:47;2.65;;;0.90;;
17598;SDS011;8918;52.092;5.232;2023-02-26T14:09:42;1.52;;;0.68;;
17598;SDS011;8918;52.092;5.232;2023-02-26T14:14:47;1.08;;;0.43;;
17598;SDS011;8918;52.092;5.232;2023-02-26T14:22:42;1.30;;;0.60;;
17598;SDS011;8918;52.092;5.232;2023-02-26T14:25:54;1.30;;;0.67;;
17598;SDS011;8918;52.092;5.232;2023-02-26T14:30:52;2.20;;;1.00;;
17598;SDS011;8918;52.092;5.232;2023-02-26T14:33:44;3.23;;;0.70;;
17598;SDS011;8918;52.092;5.232;2023-02-26T14:39:00;1.03;;;0.77;;
17598;SDS011;8918;52.092;5.232;2023-02-26T14:41:32;1.00;;;0.60;;
17598;SDS011;8918;52.092;5.232;2023-02-26T14:46:31;1.03;;;0.70;;
17598;SDS011;8918;52.092;5.232;2023-02-26T14:48:58;1.47;;;0.50;;
17598;SDS011;8918;52.092;5.232;2023-02-26T15:00:21;1.77;;;0.70;;
17598;SDS011;8918;52.092;5.232;2023-02-26T15:05:31;1.83;;;0.93;;
17598;SDS011;8918;52.092;5.232;2023-02-26T15:24:48;2.77;;;1.03;;
17598;SDS011;8918;52.092;5.232;2023-02-26T15:27:17;3.67;;;1.00;;
17598;SDS011;8918;52.092;5.232;2023-02-26T15:29:44;2.87;;;1.00;;
17598;SDS011;8918;52.092;5.232;2023-02-26T15:32:28;3.23;;;1.07;;
17598;SDS011;8918;52.092;5.232;2023-02-26T15:34:57;1.83;;;0.90;;
17598;SDS011;8918;52.092;5.232;2023-02-26T15:37:25;2.77;;;1.27;;
17598;SDS011;8918;52.092;5.232;2023-02-26T15:39:52;2.47;;;0.80;;
17598;SDS011;8918;52.092;5.232;2023-02-26T15:42:18;2.27;;;1.27;;
17598;SDS011;8918;52.092;5.232;2023-02-26T15:44:47;2.90;;;1.00;;
17598;SDS011;8918;52.092;5.232;2023-02-26T15:47:14;3.97;;;1.33;;
17598;SDS011;8918;52.092;5.232;2023-02-26T15:49:42;2.13;;;0.97;;
17598;SDS011;8918;52.092;5.232;2023-02-26T15:52:12;1.70;;;0.90;;
17598;SDS011;8918;52.092;5.232;2023-02-26T15:55:02;3.97;;;0.93;;
17598;SDS011;8918;52.092;5.232;2023-02-26T15:57:29;4.27;;;0.90;;
17598;SDS011;8918;52.092;5.232;2023-02-26T16:00:00;3.03;;;1.33;;
17598;SDS011;8918;52.092;5.232;2023-02-26T16:02:31;2.43;;;1.20;;
17598;SDS011;8918;52.092;5.232;2023-02-26T16:04:57;4.80;;;1.30;;
17598;SDS011;8918;52.092;5.232;2023-02-26T16:07:22;4.23;;;1.53;;
17598;SDS011;8918;52.092;5.232;2023-02-26T16:09:49;2.60;;;0.93;;
17598;SDS011;8918;52.092;5.232;2023-02-26T16:12:18;2.70;;;1.00;;
17598;SDS011;8918;52.092;5.232;2023-02-26T16:14:52;1.93;;;1.00;;
17598;SDS011;8918;52.092;5.232;2023-02-26T16:17:26;2.97;;;1.10;;
17598;SDS011;8918;52.092;5.232;2023-02-26T16:19:56;4.73;;;1.10;;
17598;SDS011;8918;52.092;5.232;2023-02-26T16:24:56;2.90;;;1.53;;
17598;SDS011;8918;52.092;5.232;2023-02-26T16:27:30;2.13;;;1.03;;
17598;SDS011;8918;52.092;5.232;2023-02-26T16:29:57;3.10;;;1.10;;
17598;SDS011;8918;52.092;5.232;2023-02-26T16:32:25;2.43;;;1.03;;
17598;SDS011;8918;52.092;5.232;2023-02-26T16:34:56;1.93;;;0.90;;
17598;SDS011;8918;52.092;5.232;2023-02-26T16:42:59;3.00;;;1.27;;
17598;SDS011;8918;52.092;5.232;2023-02-26T16:47:59;3.40;;;1.10;;
17598;SDS011;8918;52.092;5.232;2023-02-26T16:50:27;3.77;;;1.33;;
17598;SDS011;8918;52.092;5.232;2023-02-26T16:53:00;3.03;;;1.50;;
17598;SDS011;8918;52.092;5.232;2023-02-26T16:55:45;2.73;;;1.03;;
17598;SDS011;8918;52.092;5.232;2023-02-26T16:58:15;4.30;;;1.40;;
17598;SDS011;8918;52.092;5.232;2023-02-26T17:00:44;3.50;;;1.40;;
17598;SDS011;8918;52.092;5.232;2023-02-26T17:03:16;4.57;;;1.13;;
17598;SDS011;8918;52.092;5.232;2023-02-26T17:05:52;3.00;;;1.10;;
17598;SDS011;8918;52.092;5.232;2023-02-26T17:08:21;2.77;;;1.50;;
17598;SDS011;8918;52.092;5.232;2023-02-26T17:10:53;3.57;;;1.73;;
17598;SDS011;8918;52.092;5.232;2023-02-26T17:13:28;3.80;;;1.70;;
17598;SDS011;8918;52.092;5.232;2023-02-26T17:16:00;5.63;;;1.90;;
17598;SDS011;8918;52.092;5.232;2023-02-26T17:18:27;4.40;;;1.80;;
17598;SDS011;8918;52.092;5.232;2023-02-26T17:20:54;4.80;;;1.73;;
17598;SDS011;8918;52.092;5.232;2023-02-26T17:23:20;3.93;;;1.70;;
17598;SDS011;8918;52.092;5.232;2023-02-26T17:25:50;4.20;;;1.27;;
17598;SDS011;8918;52.092;5.232;2023-02-26T17:28:21;5.50;;;1.60;;
17598;SDS011;8918;52.092;5.232;2023-02-26T17:30:49;4.23;;;1.67;;
17598;SDS011;8918;52.092;5.232;2023-02-26T17:33:14;7.00;;;1.77;;
17598;SDS011;8918;52.092;5.232;2023-02-26T17:35:40;7.60;;;2.10;;
17598;SDS011;8918;52.092;5.232;2023-02-26T17:38:10;6.90;;;2.10;;
17598;SDS011;8918;52.092;5.232;2023-02-26T17:40:37;6.77;;;1.87;;
17598;SDS011;8918;52.092;5.232;2023-02-26T17:43:03;5.40;;;2.23;;
17598;SDS011;8918;52.092;5.232;2023-02-26T17:45:30;5.13;;;1.90;;
17598;SDS011;8918;52.092;5.232;2023-02-26T17:47:57;5.23;;;2.10;;
17598;SDS011;8918;52.092;5.232;2023-02-26T17:52:54;3.13;;;1.87;;
17598;SDS011;8918;52.092;5.232;2023-02-26T17:55:21;4.70;;;1.80;;
17598;SDS011;8918;52.092;5.232;2023-02-26T17:57:47;6.57;;;2.37;;
17598;SDS011;8918;52.092;5.232;2023-02-26T18:00:14;8.10;;;2.40;;
17598;SDS011;8918;52.092;5.232;2023-02-26T18:02:40;3.77;;;1.90;;
17598;SDS011;8918;52.092;5.232;2023-02-26T18:05:06;5.27;;;2.10;;
17598;SDS011;8918;52.092;5.232;2023-02-26T18:07:32;4.93;;;2.20;;
17598;SDS011;8918;52.092;5.232;2023-02-26T18:09:58;5.70;;;2.37;;
17598;SDS011;8918;52.092;5.232;2023-02-26T18:12:23;8.20;;;2.70;;
17598;SDS011;8918;52.092;5.232;2023-02-26T18:14:49;7.20;;;3.27;;
17598;SDS011;8918;52.092;5.232;2023-02-26T18:17:23;6.33;;;2.87;;
17598;SDS011;8918;52.092;5.232;2023-02-26T18:19:51;8.47;;;2.90;;
17598;SDS011;8918;52.092;5.232;2023-02-26T18:22:18;6.13;;;2.93;;
17598;SDS011;8918;52.092;5.232;2023-02-26T18:24:47;6.80;;;2.70;;
17598;SDS011;8918;52.092;5.232;2023-02-26T18:27:21;5.43;;;2.73;;
17598;SDS011;8918;52.092;5.232;2023-02-26T18:29:48;7.27;;;2.57;;
17598;SDS011;8918;52.092;5.232;2023-02-26T18:32:14;6.80;;;2.13;;
17598;SDS011;8918;52.092;5.232;2023-02-26T18:34:41;5.53;;;2.40;;
17598;SDS011;8918;52.092;5.232;2023-02-26T18:37:11;5.90;;;2.30;;